Time;durP1;ratioP1;P1;durP2;ratioP2;P2;SDS_P1;SDS_P2;PMS_P1;PMS_P2;Temp;Humidity;BMP_temperature;BMP_pressure;BME280_temperature;BME280_humidity;BME280_pressure;Samples;Min_cycle;Max_cycle;Signal;HPM_P1;HPM_P2
2023/10/08 00:00:49;;;;;;;12.60;6.30;;;;;;;12.59;100.00;101247.56;4988448;28;20239;-76
2023/10/08 00:03:17;;;;;;;13.30;6.03;;;;;;;12.50;100.00;101242.09;4981052;28;20794;-75
2023/10/08 00:05:45;;;;;;;10.67;5.93;;;;;;;12.45;100.00;101244.66;4987407;28;20244;-76
2023/10/08 00:08:16;;;;;;;12.17;6.30;;;;;;;12.42;100.00;101244.59;4988246;28;20201;-74
2023/10/08 00:10:44;;;;;;;12.50;5.90;;;;;;;12.51;100.00;101247.44;4987538;28;20216;-74
2023/10/08 00:13:12;;;;;;;11.57;5.43;;;;;;;12.48;100.00;101244.72;4972358;28;20320;-74
2023/10/08 00:15:58;;;;;;;10.50;6.03;;;;;;;12.51;100.00;101249.19;4981684;28;20197;-74
2023/10/08 00:18:24;;;;;;;10.93;6.00;;;;;;;12.50;100.00;101235.00;4986304;28;20205;-74
2023/10/08 00:23:42;;;;;;;9.03;5.40;;;;;;;12.62;100.00;101252.94;4988115;28;20239;-75
2023/10/08 00:26:09;;;;;;;11.17;5.77;;;;;;;12.59;100.00;101233.38;4988908;28;20227;-74
2023/10/08 00:28:35;;;;;;;12.27;5.73;;;;;;;12.66;100.00;101238.84;4989331;28;20201;-74
2023/10/08 00:31:11;;;;;;;9.80;5.33;;;;;;;12.65;100.00;101233.50;4986981;28;20212;-74
2023/10/08 00:33:44;;;;;;;12.33;5.67;;;;;;;12.54;100.00;101212.03;4987725;28;20742;-75
2023/10/08 00:36:20;;;;;;;9.97;5.13;;;;;;;12.76;100.00;101226.59;4991866;28;20201;-76
2023/10/08 00:38:51;;;;;;;7.93;5.03;;;;;;;12.81;100.00;101225.84;4988023;28;20750;-74
2023/10/08 00:41:21;;;;;;;13.87;5.63;;;;;;;12.75;100.00;101212.41;4989256;28;20300;-73
2023/10/08 00:43:48;;;;;;;8.40;4.73;;;;;;;12.77;100.00;101221.31;4990832;28;20205;-72
2023/10/08 00:46:30;;;;;;;9.20;5.17;;;;;;;12.76;100.00;101205.34;4992216;28;20231;-75
2023/10/08 00:49:11;;;;;;;8.83;5.13;;;;;;;12.85;100.00;101219.72;4991240;28;20208;-76
2023/10/08 00:51:41;;;;;;;10.27;5.37;;;;;;;12.89;100.00;101209.13;4990622;28;20206;-73
2023/10/08 00:54:10;;;;;;;10.10;6.03;;;;;;;12.86;100.00;101205.53;4990788;28;20673;-73
2023/10/08 00:59:16;;;;;;;9.93;5.33;;;;;;;12.96;100.00;101201.28;4989532;28;20292;-75
2023/10/08 01:01:51;;;;;;;9.10;4.83;;;;;;;12.94;100.00;101189.72;4981299;28;20224;-73
2023/10/08 01:04:22;;;;;;;9.73;4.87;;;;;;;13.01;100.00;101201.34;4990535;28;20681;-76
2023/10/08 01:06:55;;;;;;;8.50;5.20;;;;;;;13.09;100.00;101205.91;4990515;28;20217;-74
2023/10/08 01:09:31;;;;;;;9.93;5.70;;;;;;;13.10;100.00;101196.16;4984699;28;20239;-73
2023/10/08 01:12:07;;;;;;;10.00;5.00;;;;;;;13.22;100.00;101198.19;4984514;28;20708;-73
2023/10/08 01:14:34;;;;;;;9.57;5.03;;;;;;;13.20;100.00;101198.13;4987535;28;20208;-73
2023/10/08 01:17:00;;;;;;;9.77;5.27;;;;;;;13.17;100.00;101192.75;4988283;28;20196;-73
2023/10/08 01:19:27;;;;;;;9.37;5.37;;;;;;;13.21;100.00;101185.72;4989027;28;20213;-73
2023/10/08 01:21:58;;;;;;;7.77;5.00;;;;;;;13.22;100.00;101192.88;4982094;28;20225;-73
2023/10/08 01:24:27;;;;;;;10.43;5.03;;;;;;;13.24;100.00;101196.44;4979917;28;20212;-74
2023/10/08 01:26:53;;;;;;;9.80;5.23;;;;;;;13.28;100.00;101179.66;4983694;28;20713;-74
2023/10/08 01:29:20;;;;;;;13.10;5.90;;;;;;;13.31;100.00;101179.69;4982966;28;20225;-74
2023/10/08 01:31:53;;;;;;;11.97;6.10;;;;;;;13.39;100.00;101178.94;4987003;28;20304;-75
2023/10/08 01:34:26;;;;;;;12.53;5.00;;;;;;;13.43;100.00;101177.19;4983644;28;20709;-73
2023/10/08 01:36:53;;;;;;;9.53;4.90;;;;;;;13.41;100.00;101186.94;4988777;28;20283;-73
2023/10/08 01:39:20;;;;;;;11.30;4.53;;;;;;;13.40;100.00;101179.81;4987489;28;20206;-74
2023/10/08 01:41:46;;;;;;;10.50;4.53;;;;;;;13.65;100.00;101187.28;4986066;28;20220;-73
2023/10/08 01:44:13;;;;;;;9.50;4.03;;;;;;;13.74;100.00;101186.50;4986994;28;20217;-73
2023/10/08 01:46:40;;;;;;;6.30;4.17;;;;;;;13.78;100.00;101193.66;4990031;28;20731;-75
2023/10/08 01:49:21;;;;;;;7.00;4.13;;;;;;;13.87;100.00;101192.88;4988176;28;20575;-71
2023/10/08 01:51:47;;;;;;;5.43;3.50;;;;;;;13.89;100.00;101191.13;4987925;28;20303;-73
2023/10/08 01:54:20;;;;;;;8.73;4.23;;;;;;;13.90;100.00;101209.78;4985855;28;20215;-75
2023/10/08 01:56:50;;;;;;;9.57;3.70;;;;;;;14.15;100.00;101212.78;4971000;28;20198;-73
2023/10/08 01:59:17;;;;;;;8.67;3.47;;;;;;;14.51;100.00;101215.91;4987616;28;20209;-75
2023/10/08 02:01:45;;;;;;;6.33;3.57;;;;;;;14.68;100.00;101202.72;4980103;28;20312;-73
2023/10/08 02:04:12;;;;;;;7.50;4.10;;;;;;;14.73;100.00;101209.00;4982371;28;20208;-73
2023/10/08 02:06:39;;;;;;;5.30;3.03;;;;;;;14.77;100.00;101221.47;4985020;28;20312;-73
2023/10/08 02:09:07;;;;;;;7.33;3.23;;;;;;;14.80;100.00;101209.94;4990378;28;20294;-71
2023/10/08 02:11:50;;;;;;;7.33;3.40;;;;;;;14.86;100.00;101213.56;4986820;28;20824;-73
2023/10/08 02:14:18;;;;;;;7.47;3.27;;;;;;;14.80;100.00;101209.94;4989450;28;20299;-75
2023/10/08 02:16:45;;;;;;;7.40;3.40;;;;;;;14.79;100.00;101214.38;4988371;28;20201;-73
2023/10/08 02:19:11;;;;;;;8.50;3.30;;;;;;;14.67;100.00;101198.28;4987767;28;20201;-74
2023/10/08 02:21:41;;;;;;;6.33;3.27;;;;;;;14.53;100.00;101197.25;4985654;28;20239;-73
2023/10/08 02:24:10;;;;;;;8.40;3.30;;;;;;;14.47;100.00;101205.19;4985124;28;20228;-74
2023/10/08 02:26:37;;;;;;;6.53;3.10;;;;;;;14.46;100.00;101200.72;4986596;28;20216;-73
2023/10/08 02:29:10;;;;;;;7.70;3.30;;;;;;;14.47;100.00;101190.09;4983927;28;20271;-73
2023/10/08 02:31:39;;;;;;;8.37;3.47;;;;;;;14.53;100.00;101195.47;4987095;28;20205;-73
2023/10/08 02:34:07;;;;;;;5.10;3.10;;;;;;;14.46;100.00;101180.31;4980587;28;20213;-74
2023/10/08 02:36:36;;;;;;;6.27;3.10;;;;;;;14.56;100.00;101191.94;4988187;28;20685;-72
2023/10/08 02:39:25;;;;;;;7.93;3.60;;;;;;;14.50;100.00;101186.56;4989448;28;20232;-74
2023/10/08 02:41:54;;;;;;;6.03;3.80;;;;;;;14.49;100.00;101177.66;4988768;28;20221;-73
2023/10/08 02:44:20;;;;;;;6.60;3.03;;;;;;;14.39;100.00;101173.06;4984873;28;20236;-73
2023/10/08 02:46:49;;;;;;;6.43;3.10;;;;;;;14.46;100.00;101176.75;4986402;28;20705;-77
2023/10/08 02:49:20;;;;;;;9.30;2.87;;;;;;;14.40;100.00;101159.75;4982319;28;20208;-77
2023/10/08 02:51:50;;;;;;;7.93;3.30;;;;;;;14.54;100.00;101161.72;4979242;28;20841;-73
2023/10/08 02:54:18;;;;;;;6.73;3.33;;;;;;;14.63;100.00;101168.03;4986271;28;20204;-73
2023/10/08 02:56:46;;;;;;;6.87;2.87;;;;;;;14.57;100.00;101165.31;4987632;28;20200;-73
2023/10/08 02:59:13;;;;;;;4.90;2.83;;;;;;;14.56;100.00;101186.63;4985979;28;20724;-73
2023/10/08 03:01:40;;;;;;;6.33;3.10;;;;;;;14.38;100.00;101181.94;4979675;28;20228;-73
2023/10/08 03:04:19;;;;;;;7.70;3.50;;;;;;;14.29;100.00;101198.72;4986506;28;20204;-73
2023/10/08 03:06:54;;;;;;;5.80;3.00;;;;;;;14.17;100.00;101198.59;4987275;28;20282;-73
2023/10/08 03:09:26;;;;;;;7.17;3.37;;;;;;;14.17;100.00;101201.25;4987557;28;20303;-73
2023/10/08 03:11:53;;;;;;;6.53;3.20;;;;;;;14.14;100.00;101200.34;5006823;22;20272;-70
2023/10/08 03:14:22;;;;;;;6.60;3.57;;;;;;;14.05;100.00;101198.47;4981372;28;20275;-72
2023/10/08 03:16:51;;;;;;;6.60;3.57;;;;;;;14.13;100.00;101196.78;4988007;28;20208;-74
2023/10/08 03:19:22;;;;;;;6.47;3.63;;;;;;;14.11;100.00;101193.19;4988120;28;20211;-74
2023/10/08 03:21:56;;;;;;;4.33;2.90;;;;;;;14.02;100.00;101203.75;4985902;28;20288;-72
2023/10/08 03:24:29;;;;;;;5.83;3.03;;;;;;;13.97;100.00;101205.44;4985278;28;20201;-74
2023/10/08 03:27:06;;;;;;;6.63;2.97;;;;;;;13.83;100.00;101204.38;4985050;28;20704;-73
2023/10/08 03:29:42;;;;;;;5.40;2.70;;;;;;;13.92;100.00;101209.81;4986491;28;20665;-72
2023/10/08 03:32:13;;;;;;;6.13;3.00;;;;;;;14.05;100.00;101207.34;4983852;28;20704;-72
2023/10/08 03:34:45;;;;;;;5.73;3.20;;;;;;;14.09;100.00;101209.16;4988887;28;20201;-73
2023/10/08 03:37:22;;;;;;;6.83;3.20;;;;;;;14.08;100.00;101206.47;4983739;28;20229;-72
2023/10/08 03:39:52;;;;;;;7.67;3.40;;;;;;;14.08;100.00;101214.47;5003189;28;20204;-73
2023/10/08 03:42:20;;;;;;;8.60;3.00;;;;;;;14.09;100.00;101214.50;4986941;28;20761;-72
2023/10/08 03:44:52;;;;;;;5.77;3.33;;;;;;;13.95;100.00;101226.72;4987059;28;20295;-73
2023/10/08 03:47:19;;;;;;;4.03;2.60;;;;;;;13.92;100.00;101220.47;4981681;28;20221;-74
2023/10/08 03:49:46;;;;;;;6.23;2.87;;;;;;;13.95;100.00;101234.72;4986699;28;20240;-73
2023/10/08 03:52:13;;;;;;;6.10;3.17;;;;;;;14.12;100.00;101242.94;4983647;28;20856;-72
2023/10/08 03:54:48;;;;;;;9.43;3.20;;;;;;;14.02;100.00;101241.03;4988250;28;20197;-72
2023/10/08 03:57:25;;;;;;;7.83;3.17;;;;;;;13.95;100.00;101245.34;4984724;28;20204;-73
2023/10/08 03:59:55;;;;;;;6.37;3.27;;;;;;;13.86;100.00;101250.56;4985466;28;20208;-73
2023/10/08 04:02:39;;;;;;;6.13;3.43;;;;;;;13.85;100.00;101242.56;4987570;28;20220;-73
2023/10/08 04:05:18;;;;;;;6.20;3.40;;;;;;;13.86;100.00;101233.69;4992446;28;20295;-73
2023/10/08 04:13:08;;;;;;;9.17;3.97;;;;;;;13.77;100.00;101226.50;4992376;28;20292;-72
2023/10/08 04:15:41;;;;;;;8.00;4.20;;;;;;;13.76;100.00;101241.56;4988565;28;20209;-73
2023/10/08 04:18:08;;;;;;;5.97;3.13;;;;;;;13.76;100.00;101233.59;4989321;28;20201;-74
2023/10/08 04:20:38;;;;;;;8.97;4.00;;;;;;;13.75;100.00;101226.47;4988097;28;20577;-73
2023/10/08 04:23:20;;;;;;;6.57;3.93;;;;;;;13.77;100.00;101219.41;4984479;28;20306;-74
2023/10/08 04:25:54;;;;;;;8.07;3.37;;;;;;;13.83;100.00;101223.91;4992940;28;20231;-73
2023/10/08 04:28:22;;;;;;;8.17;3.93;;;;;;;13.90;100.00;101233.75;4988549;28;20254;-73
2023/10/08 04:30:50;;;;;;;8.50;3.93;;;;;;;14.11;100.00;101233.16;4991299;28;20211;-72
2023/10/08 04:33:19;;;;;;;6.47;3.37;;;;;;;14.04;100.00;101216.22;4986778;28;20789;-73
2023/10/08 04:35:51;;;;;;;6.23;3.93;;;;;;;14.03;100.00;101225.06;4991874;28;20208;-73
2023/10/08 04:38:21;;;;;;;6.67;4.03;;;;;;;14.01;100.00;101234.81;4995079;28;20197;-72
2023/10/08 04:40:50;;;;;;;7.70;3.50;;;;;;;14.05;100.00;101235.75;4992756;28;20201;-73
2023/10/08 04:43:25;;;;;;;8.87;3.70;;;;;;;14.04;100.00;101247.28;4990675;28;20296;-74
2023/10/08 04:45:52;;;;;;;6.37;3.47;;;;;;;14.05;100.00;101246.41;4980793;28;20629;-73
2023/10/08 04:48:20;;;;;;;8.60;4.00;;;;;;;14.11;100.00;101254.47;4994326;28;20237;-73
2023/10/08 04:50:57;;;;;;;8.07;3.70;;;;;;;14.01;100.00;101263.22;4992614;28;20661;-73
2023/10/08 04:53:35;;;;;;;7.17;3.67;;;;;;;13.95;100.00;101260.44;4992642;28;20342;-72
2023/10/08 04:56:05;;;;;;;6.80;3.60;;;;;;;13.87;100.00;101254.13;4991720;28;20200;-72
2023/10/08 04:58:36;;;;;;;7.43;3.70;;;;;;;13.80;100.00;101254.03;4993471;28;20205;-73
2023/10/08 05:11:56;;;;;;;7.10;4.07;;;;;;;13.57;100.00;101254.56;4993296;28;20262;-72
2023/10/08 05:17:21;;;;;;;6.57;3.83;;;;;;;13.49;100.00;101260.69;4987504;28;20208;-72
2023/10/08 05:30:53;;;;;;;9.30;4.23;;;;;;;13.31;100.00;101243.53;4986034;28;20215;-73
2023/10/08 05:33:28;;;;;;;7.80;4.40;;;;;;;13.36;100.00;101247.16;4988073;28;20306;-74
2023/10/08 05:35:56;;;;;;;7.30;3.80;;;;;;;13.33;100.00;101237.38;4988745;28;20608;-73
2023/10/08 05:38:37;;;;;;;7.20;3.67;;;;;;;13.35;100.00;101245.38;4989821;28;20216;-73
2023/10/08 05:41:05;;;;;;;8.10;3.90;;;;;;;13.35;100.00;101240.06;4986343;28;20677;-74
2023/10/08 05:49:02;;;;;;;6.93;3.43;;;;;;;13.47;100.00;101243.78;4988169;28;20239;-74
2023/10/08 06:13:05;;;;;;;7.97;4.00;;;;;;;13.87;100.00;101283.41;4982554;28;20232;-74
2023/10/08 06:16:04;;;;;;;7.20;3.50;;;;;;;13.93;100.00;101297.72;4987997;28;20720;-73
2023/10/08 06:18:32;;;;;;;8.07;4.10;;;;;;;13.98;100.00;101314.66;4987610;28;20590;-73
2023/10/08 06:21:07;;;;;;;8.50;3.57;;;;;;;14.04;100.00;101320.09;4985348;28;20201;-73
2023/10/08 06:23:37;;;;;;;7.80;3.90;;;;;;;14.08;100.00;101315.69;4984514;28;20254;-74
2023/10/08 06:28:41;;;;;;;6.13;3.40;;;;;;;14.08;100.00;101283.72;4982786;28;20200;-73
2023/10/08 06:31:11;;;;;;;8.27;3.57;;;;;;;14.11;100.00;101299.75;4981196;28;20201;-73
2023/10/08 06:33:40;;;;;;;7.90;4.07;;;;;;;14.14;100.00;101304.22;4987873;28;20282;-72
2023/10/08 06:38:38;;;;;;;6.70;3.40;;;;;;;14.29;100.00;101323.97;4984206;28;20490;-74
2023/10/08 06:41:15;;;;;;;5.50;2.97;;;;;;;14.39;100.00;101324.97;4984412;28;20204;-74
2023/10/08 06:44:02;;;;;;;6.60;3.30;;;;;;;14.50;100.00;101323.38;4984859;28;20216;-75
2023/10/08 06:46:32;;;;;;;6.07;3.20;;;;;;;14.64;100.00;101319.09;4985689;28;20227;-75
2023/10/08 06:48:59;;;;;;;6.40;2.97;;;;;;;14.76;100.00;101323.69;4990101;28;20275;-73
2023/10/08 06:51:32;;;;;;;5.63;2.80;;;;;;;14.90;100.00;101322.06;4984209;28;20197;-74
2023/10/08 06:54:02;;;;;;;5.77;2.83;;;;;;;15.09;100.00;101324.91;4987008;28;20305;-74
2023/10/08 06:56:31;;;;;;;6.00;3.17;;;;;;;15.21;100.00;101327.69;4988532;28;20248;-73
2023/10/08 06:58:59;;;;;;;5.47;3.20;;;;;;;15.36;100.00;101322.53;4989209;28;20668;-73
2023/10/08 07:01:25;;;;;;;8.17;3.70;;;;;;;15.50;100.00;101325.28;4980005;28;20206;-72
2023/10/08 07:03:56;;;;;;;7.10;3.53;;;;;;;15.56;100.00;101323.56;4992899;28;20691;-74
2023/10/08 07:06:25;;;;;;;6.67;3.80;;;;;;;15.68;100.00;101335.28;4990456;28;20212;-73
2023/10/08 07:08:55;;;;;;;7.23;3.33;;;;;;;15.75;100.00;101334.44;4991698;28;20204;-74
2023/10/08 07:11:22;;;;;;;8.00;3.10;;;;;;;15.78;100.00;101340.69;4995605;28;20197;-74
2023/10/08 07:13:50;;;;;;;7.40;3.77;;;;;;;15.82;100.00;101352.28;4993790;28;20240;-72
2023/10/08 07:16:17;;;;;;;5.00;3.27;;;;;;;15.76;100.00;101368.28;4990098;28;20193;-73
2023/10/08 07:18:52;;;;;;;9.33;3.70;;;;;;;15.76;100.00;101363.84;4995299;28;20200;-74
2023/10/08 07:21:23;;;;;;;6.07;3.37;;;;;;;15.83;100.00;101367.44;4989527;28;20200;-74
2023/10/08 07:23:56;;;;;;;7.40;3.50;;;;;;;15.89;100.00;101362.13;4989948;28;20232;-74
2023/10/08 07:26:35;;;;;;;5.53;3.10;;;;;;;15.99;100.00;101364.88;4996438;28;20200;-73
2023/10/08 07:29:08;;;;;;;6.43;2.87;;;;;;;16.09;100.00;101364.97;4990741;28;20255;-74
2023/10/08 07:31:36;;;;;;;6.80;3.20;;;;;;;16.21;100.00;101365.03;4987967;28;20193;-74
2023/10/08 07:34:57;;;;;;;7.33;3.50;;;;;;;16.25;100.00;101358.81;4994786;28;20267;-73
2023/10/08 07:36:54;;;;;;;6.33;3.77;;;;;;;16.41;100.00;101365.13;4973189;28;20190;-72
2023/10/08 07:41:56;;;;;;;9.47;4.03;;;;;;;16.52;100.00;101369.66;4981397;28;20205;-73
2023/10/08 07:44:23;;;;;;;6.10;3.57;;;;;;;16.63;100.00;101368.81;4988792;28;20211;-72
2023/10/08 07:46:51;;;;;;;7.47;3.77;;;;;;;16.70;100.00;101373.31;4986600;28;20704;-72
2023/10/08 07:49:18;;;;;;;7.20;4.10;;;;;;;16.89;100.00;101383.22;4986233;28;20205;-72
2023/10/08 07:51:50;;;;;;;6.53;4.13;;;;;;;16.95;100.00;101372.53;4986799;28;20574;-72
2023/10/08 07:54:27;;;;;;;6.57;4.00;;;;;;;16.98;100.00;101375.22;4988370;28;20200;-72
2023/10/08 07:57:09;;;;;;;7.30;3.60;;;;;;;17.10;100.00;101363.66;4985400;28;20189;-72
2023/10/08 07:59:46;;;;;;;7.47;3.30;;;;;;;17.26;100.00;101375.31;4986863;28;20783;-72
2023/10/08 08:02:17;;;;;;;7.93;3.93;;;;;;;17.47;100.00;101356.56;4977159;28;21012;-72
2023/10/08 08:04:45;;;;;;;10.37;3.80;;;;;;;17.63;100.00;101360.16;4982874;28;20220;-72
2023/10/08 08:07:18;;;;;;;7.93;3.77;;;;;;;17.76;100.00;101370.00;4984512;28;20266;-73
2023/10/08 08:09:58;;;;;;;10.73;3.43;;;;;;;17.92;100.00;101369.09;4974756;28;20300;-70
2023/10/08 08:12:28;;;;;;;5.47;3.53;;;;;;;18.11;100.00;101361.94;4980249;28;20229;-70
2023/10/08 08:14:54;;;;;;;4.90;2.83;;;;;;;18.32;100.00;101367.22;4987241;28;20566;-70
2023/10/08 08:17:22;;;;;;;6.47;3.10;;;;;;;18.56;100.00;101355.53;4986107;28;20201;-69
2023/10/08 08:19:51;;;;;;;6.75;3.45;;;;;;;18.76;100.00;101368.91;4985547;28;20207;-69
2023/10/08 08:22:23;;;;;;;6.78;3.00;;;;;;;18.86;100.00;101381.41;4982407;28;20263;-70
2023/10/08 08:25:15;;;;;;;9.45;3.42;;;;;;;18.67;100.00;101379.69;4984724;28;20633;-70
2023/10/08 08:27:38;;;;;;;7.75;3.63;;;;;;;18.58;100.00;101380.56;4980529;28;20305;-69
2023/10/08 08:30:15;;;;;;;5.22;3.03;;;;;;;18.63;100.00;101376.13;4983912;28;20197;-71
2023/10/08 08:32:47;;;;;;;5.60;3.00;;;;;;;18.62;100.00;101386.84;4983004;28;20224;-72
2023/10/08 08:35:19;;;;;;;7.95;3.17;;;;;;;18.45;100.00;101389.56;4977893;28;20204;-69
2023/10/08 08:37:49;;;;;;;6.97;3.22;;;;;;;18.40;100.00;101385.97;4977354;28;20650;-69
2023/10/08 08:40:19;;;;;;;7.57;3.33;;;;;;;18.47;100.00;101383.31;4978729;28;20205;-69
2023/10/08 08:42:50;;;;;;;5.45;2.90;;;;;;;18.64;100.00;101394.00;4981838;28;20229;-69
2023/10/08 08:45:20;;;;;;;7.13;3.25;;;;;;;18.76;100.00;101385.91;4979272;28;20559;-70
2023/10/08 08:47:47;;;;;;;5.28;3.22;;;;;;;18.96;100.00;101384.94;4973770;28;20241;-69
2023/10/08 08:50:14;;;;;;;5.22;3.33;;;;;;;19.08;100.00;101385.75;4982431;28;20209;-71
2023/10/08 08:52:41;;;;;;;7.47;3.63;;;;;;;19.20;100.00;101398.19;4979607;28;20213;-69
2023/10/08 08:55:16;;;;;;;5.95;3.53;;;;;;;19.20;100.00;101395.50;4980529;28;20553;-71
2023/10/08 08:57:44;;;;;;;7.28;3.25;;;;;;;19.41;100.00;101403.47;4980311;28;20193;-70
2023/10/08 09:00:12;;;;;;;5.55;3.25;;;;;;;19.47;100.00;101399.81;4982057;28;20208;-70
2023/10/08 09:02:39;;;;;;;7.60;2.97;;;;;;;19.60;100.00;101401.56;4977143;28;20221;-70
2023/10/08 09:05:13;;;;;;;6.88;3.13;;;;;;;19.78;100.00;101386.19;4983056;28;20201;-70
2023/10/08 09:07:57;;;;;;;7.40;3.08;;;;;;;19.73;100.00;101394.31;4981890;28;20216;-70
2023/10/08 09:10:29;;;;;;;6.28;3.50;;;;;;;19.48;100.00;101414.16;4980402;28;20197;-69
2023/10/08 09:13:00;;;;;;;7.13;3.20;;;;;;;19.43;100.00;101422.25;4986560;28;20225;-72
2023/10/08 09:15:27;;;;;;;6.03;3.17;;;;;;;19.39;100.00;101418.69;4982088;28;20579;-72
2023/10/08 09:17:54;;;;;;;5.47;3.53;;;;;;;19.37;100.00;101420.50;4985492;28;20198;-74
2023/10/08 09:20:22;;;;;;;5.80;3.40;;;;;;;19.39;100.00;101417.81;4982481;28;20685;-73
2023/10/08 09:23:12;;;;;;;5.32;2.92;;;;;;;19.46;100.00;101416.84;4979592;28;20228;-72
2023/10/08 09:25:40;;;;;;;7.18;3.00;;;;;;;19.54;100.00;101417.72;4978461;28;20688;-73
2023/10/08 09:28:12;;;;;;;6.55;3.45;;;;;;;19.90;100.00;101423.72;4981609;28;20223;-72
2023/10/08 09:30:40;;;;;;;4.93;2.83;;;;;;;20.45;95.48;101421.47;4979926;28;20201;-72
2023/10/08 09:33:08;;;;;;;7.80;2.97;;;;;;;20.64;92.45;101419.44;4984973;28;20716;-72
2023/10/08 09:35:36;;;;;;;5.95;3.08;;;;;;;20.88;93.16;101432.63;4985393;28;20209;-72
2023/10/08 09:38:04;;;;;;;6.15;3.50;;;;;;;21.00;90.15;101425.28;4985623;28;20278;-72
2023/10/08 09:40:31;;;;;;;6.97;3.03;;;;;;;21.08;89.31;101416.19;4982017;28;20248;-73
2023/10/08 09:42:59;;;;;;;6.90;3.80;;;;;;;21.12;87.87;101419.72;4979737;28;20288;-72
2023/10/08 09:45:25;;;;;;;6.53;3.20;;;;;;;20.88;87.94;101419.16;4982945;28;20279;-72
2023/10/08 09:47:56;;;;;;;6.57;3.38;;;;;;;20.84;90.32;101425.50;4979130;28;20574;-72
2023/10/08 09:50:29;;;;;;;5.78;3.28;;;;;;;20.80;89.49;101434.50;4980230;28;20217;-74
2023/10/08 09:53:07;;;;;;;8.15;2.97;;;;;;;20.91;91.25;101423.63;4985120;28;20229;-72
2023/10/08 09:55:38;;;;;;;7.03;3.40;;;;;;;20.90;89.23;101420.03;4981690;28;20251;-73
2023/10/08 09:58:05;;;;;;;7.22;3.40;;;;;;;21.05;90.24;101420.72;4981395;28;20638;-74
2023/10/08 10:00:32;;;;;;;5.78;3.20;;;;;;;20.94;89.71;101429.84;4980311;28;20228;-72
2023/10/08 10:03:02;;;;;;;6.63;3.30;;;;;;;21.07;88.76;101411.72;4981016;28;20272;-73
2023/10/08 10:05:31;;;;;;;4.97;2.85;;;;;;;21.23;88.12;101417.84;4982411;28;20205;-72
2023/10/08 10:07:58;;;;;;;6.38;3.38;;;;;;;21.33;85.94;101415.91;4982657;28;20325;-72
2023/10/08 10:10:30;;;;;;;8.15;3.10;;;;;;;21.09;86.51;101409.91;4979037;28;20614;-72
2023/10/08 10:12:59;;;;;;;5.75;3.85;;;;;;;20.91;87.89;101420.91;4988764;28;20350;-73
2023/10/08 10:15:29;;;;;;;6.65;3.22;;;;;;;20.77;89.77;101421.06;4982453;28;20699;-72
2023/10/08 10:18:09;;;;;;;6.45;3.25;;;;;;;20.83;90.74;101417.44;4984870;28;20197;-72
2023/10/08 10:20:40;;;;;;;6.97;3.22;;;;;;;20.92;90.46;101428.97;4981196;28;20240;-72
2023/10/08 10:23:37;;;;;;;6.95;3.33;;;;;;;20.85;92.36;101421.00;4981910;28;20212;-73
2023/10/08 10:26:04;;;;;;;4.97;3.15;;;;;;;20.76;91.33;101423.78;4983244;28;20204;-71
2023/10/08 10:28:31;;;;;;;7.53;3.20;;;;;;;20.43;95.04;101412.50;4985115;28;20591;-71
2023/10/08 10:30:58;;;;;;;6.05;3.58;;;;;;;20.34;96.72;101417.94;4982395;28;20643;-72
2023/10/08 10:33:34;;;;;;;7.57;3.25;;;;;;;20.13;100.00;101423.53;4982723;28;20553;-72
2023/10/08 10:36:02;;;;;;;6.70;3.30;;;;;;;20.06;100.00;101425.41;4986803;28;20781;-72
2023/10/08 10:38:29;;;;;;;5.50;3.42;;;;;;;19.93;100.00;101426.38;4976612;28;20233;-72
2023/10/08 10:40:58;;;;;;;5.50;3.42;;;;;;;19.86;100.00;101435.41;4982456;28;20606;-73
2023/10/08 10:43:36;;;;;;;6.03;3.47;;;;;;;19.96;100.00;101439.81;4983716;28;20216;-72
2023/10/08 10:46:24;;;;;;;5.93;3.25;;;;;;;20.01;100.00;101432.59;4983635;28;20206;-72
2023/10/08 10:48:57;;;;;;;8.40;3.55;;;;;;;20.03;100.00;101434.38;4982349;28;20602;-73
2023/10/08 10:51:24;;;;;;;7.45;3.63;;;;;;;20.30;97.81;101440.41;4978975;28;20299;-72
2023/10/08 10:54:09;;;;;;;8.55;3.90;;;;;;;20.59;94.26;101440.13;4981740;28;20304;-73
2023/10/08 10:56:42;;;;;;;7.80;3.30;;;;;;;20.64;91.16;101455.31;4980705;28;20263;-73
2023/10/08 10:59:27;;;;;;;6.32;3.00;;;;;;;20.77;83.62;101468.63;4983282;28;20554;-72
2023/10/08 11:02:08;;;;;;;7.45;3.47;;;;;;;20.94;85.81;101446.00;4981082;28;20200;-72
2023/10/08 11:04:53;;;;;;;9.05;3.92;;;;;;;21.15;83.75;101452.03;4981885;28;20673;-72
2023/10/08 11:07:22;;;;;;;11.15;3.95;;;;;;;21.14;80.84;101453.81;4980592;28;20205;-72
2023/10/08 11:09:48;;;;;;;6.05;3.28;;;;;;;21.30;80.87;101454.56;4986827;28;20197;-73
2023/10/08 11:12:22;;;;;;;10.20;3.83;;;;;;;21.25;81.13;101448.34;4984993;28;20319;-72
2023/10/08 11:14:52;;;;;;;8.30;3.30;;;;;;;21.57;77.57;101462.22;4983844;28;20203;-72
2023/10/08 11:17:24;;;;;;;7.15;3.38;;;;;;;21.93;75.68;101442.81;4983556;28;20236;-73
2023/10/08 11:19:51;;;;;;;6.20;2.85;;;;;;;22.35;72.45;101441.22;4983297;28;20229;-74
2023/10/08 11:22:18;;;;;;;5.28;3.30;;;;;;;22.56;73.03;101445.34;4979571;28;20228;-73
2023/10/08 11:24:48;;;;;;;6.63;3.20;;;;;;;22.87;72.79;101445.66;4984151;28;20247;-73
2023/10/08 11:27:28;;;;;;;5.88;3.35;;;;;;;23.13;71.76;101435.19;4979703;28;20573;-72
2023/10/08 11:29:57;;;;;;;6.35;2.97;;;;;;;23.02;68.55;101443.53;4976348;28;20202;-71
2023/10/08 11:32:32;;;;;;;10.73;3.72;;;;;;;22.89;70.89;101439.31;4986856;28;20303;-74
2023/10/08 11:35:00;;;;;;;8.30;3.60;;;;;;;22.83;71.96;101433.16;4985244;28;20207;-73
2023/10/08 11:37:28;;;;;;;6.07;3.58;;;;;;;22.85;72.22;101434.00;4981348;28;20219;-74
2023/10/08 11:39:58;;;;;;;9.05;4.55;;;;;;;22.80;70.93;101426.84;4979212;28;20665;-73
2023/10/08 11:44:59;;;;;;;8.55;3.83;;;;;;;22.61;73.94;101424.53;4982746;28;20280;-73
2023/10/08 11:47:31;;;;;;;6.38;3.28;;;;;;;22.48;74.20;101421.19;4980459;28;20600;-72
2023/10/08 11:50:10;;;;;;;6.25;3.30;;;;;;;22.43;74.69;101425.78;4979328;28;20192;-73
2023/10/08 11:52:44;;;;;;;8.95;3.58;;;;;;;22.25;76.03;101416.22;4982912;28;20230;-73
2023/10/08 11:55:18;;;;;;;11.15;3.83;;;;;;;22.14;78.42;101415.53;4981291;28;20669;-74
2023/10/08 11:57:48;;;;;;;6.00;3.17;;;;;;;22.20;78.01;101418.09;4980217;28;20192;-73
2023/10/08 12:00:19;;;;;;;7.35;3.67;;;;;;;22.01;77.50;101417.47;4972930;28;20699;-74
2023/10/08 12:03:05;;;;;;;7.30;3.10;;;;;;;22.20;77.90;101415.41;4981351;28;20690;-73
2023/10/08 12:05:34;;;;;;;6.43;3.30;;;;;;;22.08;79.34;101413.81;4979681;28;20208;-72
2023/10/08 12:08:01;;;;;;;6.43;3.20;;;;;;;22.07;79.25;101414.75;4984874;28;20225;-73
2023/10/08 12:10:31;;;;;;;6.47;3.25;;;;;;;22.03;78.68;101413.03;4984823;28;20204;-73
2023/10/08 12:12:59;;;;;;;6.55;3.40;;;;;;;21.90;79.96;101406.00;4988064;28;20713;-73
2023/10/08 12:15:38;;;;;;;7.47;3.20;;;;;;;21.88;81.05;101400.63;4986642;28;20284;-72
2023/10/08 12:18:08;;;;;;;7.45;2.92;;;;;;;21.78;80.58;101390.03;4987015;28;20250;-73
2023/10/08 12:20:39;;;;;;;8.23;3.53;;;;;;;21.68;81.55;101385.72;4987171;28;20680;-73
2023/10/08 12:23:06;;;;;;;7.72;3.22;;;;;;;21.78;82.84;101395.44;4985303;28;20308;-73
2023/10/08 12:25:32;;;;;;;6.93;3.13;;;;;;;21.84;82.22;101389.91;4988872;28;20700;-73
2023/10/08 12:28:04;;;;;;;8.13;3.58;;;;;;;21.94;82.09;101391.53;4990925;28;20220;-73
2023/10/08 12:30:31;;;;;;;6.95;3.22;;;;;;;22.10;78.53;101395.81;4989939;28;20204;-73
2023/10/08 12:32:59;;;;;;;5.38;2.97;;;;;;;22.17;77.81;101389.38;4989683;28;20295;-73
2023/10/08 12:35:29;;;;;;;9.55;3.40;;;;;;;22.22;76.43;101393.78;4988626;28;20201;-73
2023/10/08 12:37:56;;;;;;;9.27;3.25;;;;;;;22.33;77.00;101389.06;4986817;28;20243;-72
2023/10/08 12:40:23;;;;;;;8.43;3.42;;;;;;;22.47;77.43;101392.41;4988355;28;20632;-73
2023/10/08 12:42:52;;;;;;;6.10;3.15;;;;;;;22.66;77.54;101387.53;4988644;28;20733;-75
2023/10/08 12:45:22;;;;;;;9.40;3.30;;;;;;;22.84;74.95;101394.41;4989022;28;20236;-73
2023/10/08 12:47:52;;;;;;;5.82;3.20;;;;;;;23.07;74.27;101387.56;4991571;28;20646;-73
2023/10/08 12:50:29;;;;;;;9.43;3.60;;;;;;;23.45;72.93;101373.16;4984911;28;20227;-73